This is the latest recevied weather packets stored in our database for station/object KG5MMT-15. If no packets are shown the sender has not sent any weather packets the latest 10 day(s).
| Time | Temp. | Humidity | Pressure | Rain* | Wind** | Luminosity | Snow |
|---|---|---|---|---|---|---|---|
| 1778044036 | 8.33° C | 65% | 0 hPa | 0 mm | - | - | - |
| 1778043736 | 8.33° C | 64% | 0 hPa | 0 mm | - | - | - |
| 1778043436 | 8.33° C | 64% | 0 hPa | 0 mm | - | - | - |
| 1778043136 | 8.33° C | 64% | 0 hPa | 0 mm | - | - | - |
| 1778042836 | 8.33° C | 64% | 0 hPa | 0 mm | - | - | - |
| 1778042536 | 8.33° C | 64% | 0 hPa | 0 mm | - | - | - |
| 1778042236 | 8.33° C | 64% | 0 hPa | 0 mm | - | - | - |
| 1778041936 | 8.33° C | 64% | 0 hPa | 0.25 mm | - | - | - |
| 1778041636 | 8.33° C | 65% | 0 hPa | 0.25 mm | - | - | - |
| 1778041336 | 8.33° C | 66% | 0 hPa | 0.25 mm | - | - | - |
| 1778041036 | 7.78° C | 67% | 0 hPa | 0.25 mm | - | - | - |
| 1778040736 | 7.78° C | 67% | 0 hPa | 0.25 mm | - | - | - |
| 1778040436 | 7.78° C | 69% | 0 hPa | 0.25 mm | - | - | - |
| 1778040136 | 7.78° C | 70% | 0 hPa | 0.25 mm | - | - | - |
| 1778039836 | 7.78° C | 71% | 0 hPa | 0.25 mm | - | - | - |
| 1778039536 | 7.22° C | 75% | 0 hPa | 0.25 mm | - | - | - |
| 1778039236 | 7.22° C | 76% | 0 hPa | 0.25 mm | - | - | - |
| 1778038936 | 7.78° C | 77% | 0 hPa | 0.25 mm | - | - | - |
| 1778038636 | 7.78° C | 74% | 0 hPa | 0.25 mm | - | - | - |
| 1778038336 | 8.33° C | 71% | 0 hPa | 0 mm | - | - | - |
| 1778038036 | 8.33° C | 67% | 0 hPa | 0 mm | - | - | - |
| 1778037736 | 9.44° C | 60% | 0 hPa | 0 mm | - | - | - |
| 1778037436 | 10° C | 59% | 0 hPa | 0 mm | - | - | - |
| 1778037136 | 10° C | 57% | 0 hPa | 0 mm | - | - | - |
| 1778036836 | 10° C | 56% | 0 hPa | 0 mm | - | - | - |
* Rain latest hour (hover to see other rain measurements)
** Current wind speed in m/s (hover to see current wind gust speed)